Time;durP1;ratioP1;P1;durP2;ratioP2;P2;SDS_P1;SDS_P2;PMS_P1;PMS_P2;Temp;Humidity;BMP_temperature;BMP_pressure;BME280_temperature;BME280_humidity;BME280_pressure;Samples;Min_cycle;Max_cycle;Signal;HPM_P1;HPM_P2
2023/12/29 00:02:05;;;;;;;17.65;8.95;;;;;;;4.85;67.76;92989.59;2061309;69;20149;-84
2023/12/29 00:04:31;;;;;;;14.20;7.90;;;;;;;4.66;68.60;92994.19;2061114;69;20146;-83
2023/12/29 00:06:56;;;;;;;19.25;8.40;;;;;;;4.76;68.41;92990.22;2061429;69;20141;-83
2023/12/29 00:09:22;;;;;;;16.83;8.30;;;;;;;4.75;67.74;92974.06;2057605;69;20160;-82
2023/12/29 00:11:50;;;;;;;13.63;7.85;;;;;;;4.49;68.21;92975.28;2061766;69;20175;-83
2023/12/29 00:14:17;;;;;;;15.07;7.97;;;;;;;4.61;68.34;92964.47;2061788;69;20185;-82
2023/12/29 00:16:45;;;;;;;15.45;8.23;;;;;;;4.64;68.23;92977.28;2061704;69;20253;-82
2023/12/29 00:19:12;;;;;;;11.82;6.43;;;;;;;4.63;68.10;92987.72;2061335;69;20755;-83
2023/12/29 00:21:38;;;;;;;15.27;7.22;;;;;;;4.42;68.29;92982.41;2060810;69;20187;-83
2023/12/29 00:24:05;;;;;;;13.30;7.30;;;;;;;4.49;67.59;92997.59;2061416;69;20153;-83
2023/12/29 00:26:31;;;;;;;11.75;6.28;;;;;;;4.18;68.02;92989.38;2061408;69;20149;-83
2023/12/29 00:28:57;;;;;;;13.13;7.28;;;;;;;4.34;68.33;93006.78;2061293;69;20149;-84
2023/12/29 00:31:23;;;;;;;15.48;6.88;;;;;;;4.33;68.64;92999.72;2061904;69;20157;-82
2023/12/29 00:33:52;;;;;;;14.73;7.18;;;;;;;4.20;68.58;93005.53;2058070;69;20176;-81
2023/12/29 00:36:20;;;;;;;14.43;7.13;;;;;;;4.18;68.87;92997.00;2058641;69;20157;-82
2023/12/29 00:38:46;;;;;;;14.75;6.68;;;;;;;4.25;68.50;92994.16;2061657;69;20165;-82
2023/12/29 00:41:12;;;;;;;14.23;6.75;;;;;;;4.21;68.51;92993.06;2061587;69;20165;-82
2023/12/29 00:43:38;;;;;;;15.77;7.20;;;;;;;3.98;69.60;93004.28;2055521;69;20175;-81
2023/12/29 00:46:08;;;;;;;14.80;6.70;;;;;;;4.00;68.98;92999.63;2055521;69;20214;-83
2023/12/29 00:48:35;;;;;;;13.13;6.70;;;;;;;4.12;69.13;93013.16;2057565;69;20157;-81
2023/12/29 00:51:02;;;;;;;13.20;6.85;;;;;;;4.10;69.17;93013.00;2061386;69;20152;-82
2023/12/29 00:53:31;;;;;;;15.02;6.97;;;;;;;3.72;68.98;93011.03;2061900;69;20306;-84
2023/12/29 00:55:58;;;;;;;15.73;7.60;;;;;;;3.52;70.57;93019.00;2061410;69;20238;-84
2023/12/29 00:58:25;;;;;;;13.30;7.30;;;;;;;3.78;69.90;93017.13;2057913;69;20203;-83
2023/12/29 01:00:52;;;;;;;12.82;6.88;;;;;;;3.82;69.70;93012.69;2060833;69;20154;-84
2023/12/29 01:03:18;;;;;;;10.80;6.10;;;;;;;3.74;69.36;92994.50;2061544;69;20508;-82
2023/12/29 01:05:46;;;;;;;14.23;6.47;;;;;;;3.66;69.87;92997.28;2061661;69;20188;-83
2023/12/29 01:08:12;;;;;;;14.55;6.45;;;;;;;3.54;69.72;93010.13;2058614;69;20169;-83
2023/12/29 01:10:38;;;;;;;10.25;5.10;;;;;;;3.65;69.57;92995.81;2061732;69;20223;-83
2023/12/29 01:13:08;;;;;;;10.82;5.90;;;;;;;3.65;69.39;93012.50;2061503;69;20153;-83
2023/12/29 01:15:34;;;;;;;10.18;5.28;;;;;;;3.54;70.08;93010.84;2058098;69;20574;-83
2023/12/29 01:18:01;;;;;;;11.40;5.43;;;;;;;3.66;69.89;93013.97;2058105;69;20529;-84
2023/12/29 01:20:27;;;;;;;9.63;5.40;;;;;;;3.63;69.46;93014.38;2055481;69;20160;-84
2023/12/29 01:22:52;;;;;;;10.48;5.50;;;;;;;3.50;69.58;93015.31;2061548;69;20238;-85
2023/12/29 01:25:24;;;;;;;9.98;4.65;;;;;;;3.56;69.26;93004.72;2061830;69;20153;-82
2023/12/29 01:27:49;;;;;;;9.75;4.72;;;;;;;3.57;69.45;93008.97;2061675;69;20588;-84
2023/12/29 01:30:15;;;;;;;10.90;5.25;;;;;;;3.50;69.75;93004.19;2061566;69;20142;-82
2023/12/29 01:32:42;;;;;;;12.52;6.38;;;;;;;3.59;69.28;93003.63;2060990;69;20183;-84
2023/12/29 01:35:08;;;;;;;9.23;4.63;;;;;;;3.52;69.44;92993.22;2061775;69;20603;-83
2023/12/29 01:37:34;;;;;;;6.18;2.80;;;;;;;3.53;69.19;92991.94;2058138;69;20141;-82
2023/12/29 01:40:00;;;;;;;6.22;2.90;;;;;;;3.61;68.66;92980.78;2061785;69;20150;-84
2023/12/29 01:42:27;;;;;;;5.72;3.40;;;;;;;3.83;68.23;92982.78;2061199;69;20159;-85
2023/12/29 01:44:54;;;;;;;5.35;3.08;;;;;;;3.73;68.36;92993.75;2061608;69;20261;-83
2023/12/29 01:47:22;;;;;;;10.40;4.90;;;;;;;3.73;68.14;93015.28;2061473;69;20148;-82
2023/12/29 01:49:49;;;;;;;12.23;4.80;;;;;;;3.49;68.84;93016.63;2057703;69;20150;-82
2023/12/29 01:52:19;;;;;;;10.63;5.00;;;;;;;3.19;69.36;93023.66;2060408;69;20180;-84
2023/12/29 01:55:25;;;;;;;9.70;4.80;;;;;;;3.41;68.59;93030.53;2061079;69;20244;-84
2023/12/29 01:57:55;;;;;;;9.70;4.65;;;;;;;3.43;68.70;93022.34;2061095;69;20315;-83
2023/12/29 02:00:20;;;;;;;9.82;4.50;;;;;;;3.48;68.90;93021.44;2057881;69;20612;-82
2023/12/29 02:02:50;;;;;;;10.68;4.60;;;;;;;3.24;69.71;93008.81;2057337;69;20153;-84
2023/12/29 02:05:25;;;;;;;8.45;4.32;;;;;;;3.39;69.50;93007.31;2061022;69;20215;-82
2023/12/29 02:07:53;;;;;;;7.22;4.10;;;;;;;3.17;69.77;92994.91;2060779;69;20505;-82
2023/12/29 02:10:19;;;;;;;9.57;4.18;;;;;;;3.38;69.22;92989.16;2058138;69;20588;-88
2023/12/29 02:12:56;;;;;;;8.45;4.40;;;;;;;3.52;68.55;92988.38;2061086;69;20169;-85
2023/12/29 02:15:26;;;;;;;8.18;4.28;;;;;;;3.59;68.48;92983.38;2059861;69;20149;-86
2023/12/29 02:18:08;;;;;;;6.95;3.90;;;;;;;3.57;68.63;92978.34;2060745;69;20156;-85
2023/12/29 02:20:35;;;;;;;6.50;4.05;;;;;;;3.58;68.34;92985.44;2058845;69;20167;-80
2023/12/29 02:23:02;;;;;;;6.22;3.35;;;;;;;3.72;67.81;92989.50;2061919;69;20146;-81
2023/12/29 02:25:30;;;;;;;9.23;4.28;;;;;;;3.10;69.90;92992.84;2061189;69;20149;-82
2023/12/29 02:28:14;;;;;;;7.57;3.80;;;;;;;3.44;69.06;93001.59;2061274;69;20153;-83
2023/12/29 02:30:53;;;;;;;7.68;3.70;;;;;;;3.60;68.48;92991.16;2061297;69;20153;-87
2023/12/29 02:33:21;;;;;;;9.10;4.57;;;;;;;3.28;68.77;92983.41;2060929;69;20671;-82
2023/12/29 02:35:55;;;;;;;11.07;3.72;;;;;;;3.35;68.99;92985.44;2061364;69;20623;-85
2023/12/29 02:38:21;;;;;;;6.97;3.67;;;;;;;3.21;68.78;92970.25;2061038;69;20161;-84
2023/12/29 02:40:51;;;;;;;7.43;3.88;;;;;;;3.29;69.10;92966.13;2057797;69;20141;-86
2023/12/29 02:43:18;;;;;;;7.88;3.60;;;;;;;3.41;68.62;92960.22;2061490;69;20171;-84
2023/12/29 02:45:48;;;;;;;8.23;3.28;;;;;;;3.40;68.84;92956.69;2060867;69;20177;-83
2023/12/29 02:48:14;;;;;;;6.57;3.00;;;;;;;3.33;68.93;92951.13;2060515;69;20221;-85
2023/12/29 02:50:39;;;;;;;4.43;2.58;;;;;;;3.46;68.29;92939.78;2056676;69;20189;-81
2023/12/29 02:53:06;;;;;;;4.32;2.50;;;;;;;3.63;66.70;92939.22;2057707;69;20248;-84
2023/12/29 02:55:32;;;;;;;4.03;2.70;;;;;;;3.76;67.05;92948.09;2057793;69;20490;-82
2023/12/29 02:57:59;;;;;;;5.70;3.20;;;;;;;3.50;68.13;92949.25;2054245;69;20679;-82
2023/12/29 03:00:25;;;;;;;8.65;3.28;;;;;;;3.68;67.71;92949.41;2057391;69;20153;-83
2023/12/29 03:02:50;;;;;;;6.05;3.10;;;;;;;3.46;68.07;92948.88;2056577;69;20228;-82
2023/12/29 03:05:16;;;;;;;6.30;3.28;;;;;;;3.48;68.34;92948.31;2057913;69;20156;-82
2023/12/29 03:07:42;;;;;;;8.07;3.70;;;;;;;3.76;67.99;92948.09;2057923;69;20648;-84
2023/12/29 03:10:08;;;;;;;6.13;3.13;;;;;;;3.87;67.54;92935.06;2057698;69;20160;-81
2023/12/29 03:12:34;;;;;;;6.43;3.55;;;;;;;3.79;67.68;92924.66;2057111;69;20283;-83
2023/12/29 03:14:59;;;;;;;9.32;3.70;;;;;;;3.84;67.93;92917.41;2057271;69;20601;-86
2023/12/29 03:17:26;;;;;;;6.40;3.17;;;;;;;3.84;67.90;92914.63;2058085;69;20137;-83
2023/12/29 03:19:53;;;;;;;5.55;3.30;;;;;;;3.30;70.00;92914.78;2056999;69;20165;-84
2023/12/29 03:22:19;;;;;;;6.28;3.20;;;;;;;3.61;69.13;92913.97;2057734;69;20179;-85
2023/12/29 03:24:44;;;;;;;5.45;3.45;;;;;;;3.48;69.39;92915.66;2057840;69;20169;-84
2023/12/29 03:27:10;;;;;;;7.53;3.45;;;;;;;3.65;68.75;92917.09;2058207;69;20157;-82
2023/12/29 03:29:36;;;;;;;10.10;3.80;;;;;;;3.63;68.57;92917.66;2058767;69;20154;-83
2023/12/29 03:32:02;;;;;;;6.57;3.40;;;;;;;3.72;68.35;92902.44;2060026;69;20153;-81
2023/12/29 03:34:28;;;;;;;6.20;3.10;;;;;;;3.79;68.40;92902.38;2057840;69;20281;-81
2023/12/29 03:36:54;;;;;;;6.78;3.10;;;;;;;3.74;69.03;92916.53;2058147;69;20133;-81
2023/12/29 03:39:19;;;;;;;6.25;3.22;;;;;;;3.62;69.17;92923.78;2058239;69;20486;-81
2023/12/29 03:41:46;;;;;;;6.80;3.30;;;;;;;3.51;69.64;92927.72;2057989;69;20232;-80
2023/12/29 03:44:13;;;;;;;6.68;3.17;;;;;;;3.30;69.64;92941.84;2058518;69;20173;-84
2023/12/29 03:46:45;;;;;;;7.07;3.35;;;;;;;3.30;70.24;92937.03;2058355;69;20304;-84
2023/12/29 03:49:17;;;;;;;7.75;3.60;;;;;;;3.19;70.50;92940.19;2058192;69;20232;-83
2023/12/29 03:51:43;;;;;;;7.90;3.58;;;;;;;3.59;69.65;92941.63;2061660;69;20177;-82
2023/12/29 03:54:11;;;;;;;9.25;3.72;;;;;;;3.73;69.16;92926.91;2058534;69;20141;-82
2023/12/29 03:56:38;;;;;;;8.35;3.65;;;;;;;3.78;68.77;92914.09;2061443;69;20211;-84
2023/12/29 03:59:05;;;;;;;8.43;4.07;;;;;;;3.62;68.84;92921.00;2057827;69;20240;-82
2023/12/29 04:01:34;;;;;;;10.80;3.95;;;;;;;3.55;69.29;92903.03;2061100;69;20157;-82
2023/12/29 04:04:00;;;;;;;6.55;3.50;;;;;;;3.75;69.67;92904.81;2058186;69;20125;-82
2023/12/29 04:06:25;;;;;;;7.20;3.80;;;;;;;3.74;69.17;92891.47;2058199;69;20153;-85
2023/12/29 04:08:52;;;;;;;8.90;4.40;;;;;;;3.89;68.69;92896.97;2061363;69;20146;-84
2023/12/29 04:11:18;;;;;;;7.97;3.47;;;;;;;3.96;68.83;92910.13;2061879;69;20144;-84
2023/12/29 04:13:43;;;;;;;7.07;3.28;;;;;;;3.56;69.09;92910.81;2061218;69;20157;-82
2023/12/29 04:16:09;;;;;;;7.57;3.90;;;;;;;3.32;70.38;92933.69;2058110;69;20301;-83
2023/12/29 04:18:35;;;;;;;10.57;4.25;;;;;;;3.20;70.50;92944.44;2061130;69;20135;-83
2023/12/29 04:21:01;;;;;;;7.47;3.78;;;;;;;3.42;70.50;92925.50;2058099;69;20702;-83
2023/12/29 04:23:27;;;;;;;9.90;3.72;;;;;;;3.48;69.92;92926.03;2061868;69;20249;-84
2023/12/29 04:25:52;;;;;;;7.35;3.63;;;;;;;3.66;69.36;92930.44;2061557;69;20529;-83
2023/12/29 04:28:18;;;;;;;7.60;3.90;;;;;;;3.70;69.12;92911.31;2061310;69;20249;-82
2023/12/29 04:30:44;;;;;;;7.10;3.58;;;;;;;3.70;69.09;92913.38;2061423;69;20224;-83
2023/12/29 04:33:09;;;;;;;7.40;3.60;;;;;;;3.23;70.54;92912.00;2055036;69;20151;-84
2023/12/29 04:35:36;;;;;;;8.20;4.07;;;;;;;3.25;70.41;92906.59;2061082;69;20901;-83
2023/12/29 04:38:02;;;;;;;8.88;3.70;;;;;;;3.45;69.92;92905.66;2055108;69;20156;-82
2023/12/29 04:40:27;;;;;;;8.50;3.65;;;;;;;3.60;69.75;92893.72;2061285;69;20181;-83
2023/12/29 04:43:00;;;;;;;6.07;3.40;;;;;;;3.44;70.00;92901.38;2058232;69;20177;-84
2023/12/29 04:45:26;;;;;;;7.72;4.00;;;;;;;3.03;70.86;92872.69;2061620;69;20240;-85
2023/12/29 04:47:52;;;;;;;10.05;4.32;;;;;;;3.09;70.59;92844.69;2061490;69;20195;-84
2023/12/29 04:50:18;;;;;;;7.82;3.95;;;;;;;3.20;70.82;92879.72;2061831;69;20189;-86
2023/12/29 04:52:44;;;;;;;6.82;4.03;;;;;;;3.18;70.94;92871.19;2061499;69;20254;-85
2023/12/29 04:55:11;;;;;;;9.52;4.43;;;;;;;3.54;70.15;92891.16;2061777;69;20145;-84
2023/12/29 04:57:37;;;;;;;9.25;4.47;;;;;;;3.55;70.08;92894.66;2061730;69;20501;-83
2023/12/29 05:00:04;;;;;;;12.65;6.03;;;;;;;3.18;70.82;92896.97;2058476;69;20623;-84
2023/12/29 05:02:30;;;;;;;11.70;5.00;;;;;;;3.37;70.83;92887.47;2061663;69;20236;-82
2023/12/29 05:04:56;;;;;;;11.32;4.47;;;;;;;3.48;70.41;92906.56;2061674;69;20180;-82
2023/12/29 05:07:23;;;;;;;10.50;4.70;;;;;;;3.13;71.62;92902.72;2061458;69;20207;-84
2023/12/29 05:09:49;;;;;;;50.38;23.70;;;;;;;3.13;72.03;92902.72;2058406;69;20141;-83
2023/12/29 05:12:15;;;;;;;25.00;10.80;;;;;;;3.43;71.02;92897.09;2060611;69;20524;-84
2023/12/29 05:14:40;;;;;;;17.98;7.43;;;;;;;3.34;70.92;92902.50;2058221;69;20156;-84
2023/12/29 05:17:08;;;;;;;9.93;4.75;;;;;;;3.12;70.93;92890.13;2061167;69;20242;-83
2023/12/29 05:19:33;;;;;;;16.15;8.40;;;;;;;3.03;71.99;92875.47;2061317;69;20220;-85
2023/12/29 05:21:59;;;;;;;19.52;11.13;;;;;;;3.30;70.86;92880.63;2057799;69;20296;-83
2023/12/29 05:24:25;;;;;;;19.35;10.63;;;;;;;3.25;70.60;92868.41;2060786;69;20137;-84
2023/12/29 05:26:50;;;;;;;15.20;6.65;;;;;;;3.31;70.53;92877.28;2061452;69;20240;-83
2023/12/29 05:29:16;;;;;;;14.80;7.18;;;;;;;3.38;70.61;92883.38;2061522;69;20203;-81
2023/12/29 05:31:42;;;;;;;13.93;7.25;;;;;;;3.33;70.33;92882.28;2061772;69;20153;-81
2023/12/29 05:34:07;;;;;;;15.93;7.25;;;;;;;3.41;69.90;92885.78;2059923;69;20249;-81
2023/12/29 05:36:37;;;;;;;11.32;5.45;;;;;;;3.19;70.14;92897.72;2058286;69;20165;-84
2023/12/29 05:39:03;;;;;;;10.38;5.97;;;;;;;3.28;70.15;92902.69;2059849;69;20141;-81
2023/12/29 05:41:30;;;;;;;12.40;6.90;;;;;;;3.40;70.14;92903.06;2062037;69;20184;-81
2023/12/29 05:43:57;;;;;;;13.60;7.43;;;;;;;3.45;69.96;92893.78;2061916;69;20145;-81
2023/12/29 05:46:23;;;;;;;15.90;8.50;;;;;;;3.50;70.08;92903.97;2062006;69;20149;-82
2023/12/29 05:48:52;;;;;;;13.73;7.43;;;;;;;3.46;70.23;92895.25;2060882;69;20146;-82
2023/12/29 05:51:18;;;;;;;10.27;5.85;;;;;;;3.40;70.51;92906.59;2061592;69;20146;-83
2023/12/29 05:53:44;;;;;;;11.02;5.75;;;;;;;3.45;70.15;92902.13;2061900;69;20216;-80
2023/12/29 05:56:14;;;;;;;10.30;5.40;;;;;;;3.54;70.34;92915.47;2061104;69;20608;-81
2023/12/29 05:58:46;;;;;;;16.95;6.50;;;;;;;3.04;71.01;92910.34;2060504;69;20184;-82
2023/12/29 06:01:11;;;;;;;11.13;6.83;;;;;;;3.29;71.02;92910.47;2061057;69;20158;-82
2023/12/29 06:03:38;;;;;;;15.18;6.75;;;;;;;3.20;71.42;92899.19;2060238;69;20291;-85
2023/12/29 06:06:04;;;;;;;12.40;6.97;;;;;;;3.46;70.72;92896.00;2060625;69;20189;-83
2023/12/29 06:08:29;;;;;;;12.45;6.50;;;;;;;3.52;70.29;92890.22;2061017;69;20153;-84
2023/12/29 06:10:55;;;;;;;10.40;6.50;;;;;;;3.59;69.87;92899.88;2055236;69;20253;-83
2023/12/29 06:13:22;;;;;;;12.60;6.25;;;;;;;3.34;70.47;92902.50;2059974;69;20578;-83
2023/12/29 06:15:49;;;;;;;14.15;7.13;;;;;;;2.94;71.93;92901.06;2059860;69;20242;-82
2023/12/29 06:18:14;;;;;;;21.35;11.25;;;;;;;2.82;72.52;92910.34;2059836;69;20498;-82
2023/12/29 06:20:41;;;;;;;16.98;8.18;;;;;;;2.99;72.47;92907.75;2056374;69;20627;-82
2023/12/29 06:23:08;;;;;;;19.05;10.40;;;;;;;3.32;71.48;92900.28;2058903;69;20152;-81
2023/12/29 06:25:34;;;;;;;14.88;8.50;;;;;;;3.37;70.81;92893.03;2059658;69;20195;-85
2023/12/29 06:28:06;;;;;;;14.45;8.70;;;;;;;3.49;70.53;92891.34;2059320;69;20160;-81
2023/12/29 06:30:32;;;;;;;18.73;12.23;;;;;;;3.59;70.71;92906.19;2056468;69;20467;-83
2023/12/29 06:32:57;;;;;;;13.82;8.48;;;;;;;3.51;70.93;92908.97;2059845;69;20161;-84
2023/12/29 06:35:23;;;;;;;15.55;8.48;;;;;;;3.55;70.60;92905.81;2059759;69;20731;-81
2023/12/29 06:37:51;;;;;;;14.20;8.70;;;;;;;3.62;70.40;92907.06;2059346;69;20188;-80
2023/12/29 06:40:17;;;;;;;16.20;9.85;;;;;;;3.16;71.93;92893.25;2053203;69;20177;-81
2023/12/29 06:42:42;;;;;;;30.98;19.58;;;;;;;3.30;72.09;92898.06;2059483;69;20613;-80
2023/12/29 06:45:08;;;;;;;37.53;21.45;;;;;;;3.39;71.71;92907.91;2056378;69;20236;-81
2023/12/29 06:47:34;;;;;;;35.60;18.05;;;;;;;3.52;70.83;92896.53;2059789;69;20552;-81
2023/12/29 06:50:02;;;;;;;20.15;11.43;;;;;;;3.49;70.95;92877.44;2058710;69;20153;-80
2023/12/29 06:52:33;;;;;;;17.77;8.65;;;;;;;3.55;70.52;92884.28;2055879;69;20141;-81
2023/12/29 06:55:00;;;;;;;15.65;9.25;;;;;;;3.47;70.56;92880.03;2059084;69;20229;-81
2023/12/29 06:57:27;;;;;;;11.90;6.88;;;;;;;3.35;70.99;92896.41;2059469;69;20629;-83
2023/12/29 06:59:52;;;;;;;16.20;7.20;;;;;;;3.10;71.83;92882.31;2059650;69;20200;-83
2023/12/29 07:02:18;;;;;;;14.02;7.68;;;;;;;3.35;71.32;92865.03;2060215;69;20157;-85
2023/12/29 07:04:48;;;;;;;17.52;10.10;;;;;;;3.13;72.19;92855.44;2059802;69;20188;-82
2023/12/29 07:07:14;;;;;;;39.78;18.85;;;;;;;2.80;72.72;92872.72;2059447;69;20165;-83
2023/12/29 07:09:41;;;;;;;19.75;10.88;;;;;;;3.16;72.21;92877.31;2055616;69;20188;-82
2023/12/29 07:12:07;;;;;;;16.13;8.18;;;;;;;3.37;71.40;92879.13;2059692;69;20555;-84
2023/12/29 07:14:32;;;;;;;17.65;8.93;;;;;;;3.47;71.32;92886.34;2055774;69;20157;-86
2023/12/29 07:16:58;;;;;;;15.27;8.23;;;;;;;3.54;71.05;92873.72;2059993;69;20223;-84
2023/12/29 07:19:24;;;;;;;23.10;11.15;;;;;;;2.91;72.65;92873.63;2059094;69;20169;-83
2023/12/29 07:21:51;;;;;;;47.83;19.58;;;;;;;3.15;72.41;92892.50;2060593;69;20490;-82
2023/12/29 07:24:16;;;;;;;46.05;22.33;;;;;;;3.41;71.47;92896.94;2061534;69;20161;-83
2023/12/29 07:26:42;;;;;;;32.50;17.52;;;;;;;3.51;71.21;92886.69;2061316;69;20168;-85
2023/12/29 07:29:08;;;;;;;28.20;15.48;;;;;;;3.62;70.67;92882.78;2058421;69;20153;-86
2023/12/29 07:31:39;;;;;;;24.67;13.68;;;;;;;3.75;70.53;92892.94;2058268;69;20155;-85
2023/12/29 07:34:04;;;;;;;16.73;8.65;;;;;;;3.13;72.94;92891.59;2061362;69;20156;-81
2023/12/29 07:36:30;;;;;;;17.40;7.95;;;;;;;3.53;71.55;92889.69;2061461;69;20149;-83
2023/12/29 07:38:56;;;;;;;13.88;7.70;;;;;;;3.81;70.84;92908.16;2057870;69;20597;-83
2023/12/29 07:41:23;;;;;;;12.43;7.15;;;;;;;3.83;70.48;92905.53;2057845;69;20188;-86
2023/12/29 07:43:49;;;;;;;12.07;6.70;;;;;;;4.01;70.25;92906.41;2057139;69;20632;-80
2023/12/29 07:46:24;;;;;;;12.48;6.15;;;;;;;3.95;69.79;92907.94;2060317;69;20174;-87
2023/12/29 07:48:50;;;;;;;13.13;6.35;;;;;;;3.89;70.48;92922.03;2059621;69;20236;-86
2023/12/29 07:51:16;;;;;;;13.68;6.57;;;;;;;4.14;69.95;92922.13;2057929;69;20245;-84
2023/12/29 07:53:41;;;;;;;12.20;6.22;;;;;;;4.25;69.59;92934.91;2061670;69;20165;-84
2023/12/29 07:56:07;;;;;;;13.50;7.07;;;;;;;3.99;69.98;92945.22;2061571;69;20165;-85
2023/12/29 07:58:32;;;;;;;24.60;12.30;;;;;;;3.95;70.54;92938.56;2061261;69;20239;-86
2023/12/29 08:00:58;;;;;;;25.58;12.95;;;;;;;4.06;70.17;92943.72;2061257;69;20613;-86
2023/12/29 08:03:24;;;;;;;30.52;15.90;;;;;;;4.27;69.85;92938.63;2061488;69;20191;-83
2023/12/29 08:05:49;;;;;;;22.73;11.85;;;;;;;4.30;69.03;92936.72;2060515;69;20145;-83
2023/12/29 08:08:15;;;;;;;23.67;13.80;;;;;;;4.46;69.09;92943.72;2055479;69;20169;-81
2023/12/29 08:10:41;;;;;;;24.30;14.10;;;;;;;4.54;68.91;92929.75;2058692;69;20138;-82
2023/12/29 08:13:08;;;;;;;25.77;14.02;;;;;;;4.61;68.77;92931.75;2056925;69;20137;-83
2023/12/29 08:15:37;;;;;;;21.70;12.90;;;;;;;4.70;69.22;92916.44;2056981;69;20279;-85
2023/12/29 08:18:04;;;;;;;29.38;13.77;;;;;;;4.33;69.95;92925.19;2059410;69;20609;-82
2023/12/29 08:20:30;;;;;;;30.25;14.75;;;;;;;4.32;69.95;92918.16;2059918;69;20150;-84
2023/12/29 08:22:56;;;;;;;32.42;13.98;;;;;;;4.71;69.17;92917.94;2051702;69;20196;-82
2023/12/29 08:25:22;;;;;;;35.08;16.83;;;;;;;4.79;69.07;92916.56;2061733;69;20544;-87
2023/12/29 08:27:50;;;;;;;37.45;16.75;;;;;;;4.97;68.50;92911.78;2061797;69;20149;-81
2023/12/29 08:30:16;;;;;;;39.85;17.10;;;;;;;5.06;68.52;92918.81;2058421;69;20153;-81
2023/12/29 08:32:42;;;;;;;36.22;17.80;;;;;;;5.16;68.20;92910.53;2061741;69;20137;-82
2023/12/29 08:35:07;;;;;;;30.48;16.63;;;;;;;5.20;68.02;92920.00;2055845;69;20207;-84
2023/12/29 08:37:33;;;;;;;27.15;13.32;;;;;;;4.75;68.47;92935.75;2062055;69;20533;-81
2023/12/29 08:39:59;;;;;;;23.05;10.50;;;;;;;4.81;69.51;92929.94;2062033;69;20212;-81
2023/12/29 08:42:29;;;;;;;17.02;9.27;;;;;;;5.11;68.64;92929.00;2061636;69;20598;-83
2023/12/29 08:44:56;;;;;;;21.00;10.65;;;;;;;5.36;68.21;92931.78;2062032;69;20624;-82
2023/12/29 08:47:21;;;;;;;19.77;10.40;;;;;;;5.28;68.06;92931.84;2062151;69;20145;-86
2023/12/29 08:49:48;;;;;;;21.00;9.70;;;;;;;5.38;68.66;92939.56;2058576;69;20646;-84
2023/12/29 08:52:14;;;;;;;20.67;10.77;;;;;;;5.53;67.75;92928.25;2058742;69;20157;-85
2023/12/29 08:54:40;;;;;;;24.92;12.10;;;;;;;5.71;67.49;92938.13;2058660;69;20152;-84
2023/12/29 08:57:06;;;;;;;29.65;14.07;;;;;;;5.89;67.17;92936.09;2061891;69;20557;-85
2023/12/29 08:59:33;;;;;;;31.00;14.85;;;;;;;5.98;66.99;92934.72;2055825;69;20521;-83
2023/12/29 09:02:00;;;;;;;30.50;14.45;;;;;;;5.93;66.02;92936.47;2058539;69;20508;-82
2023/12/29 09:04:26;;;;;;;28.27;14.35;;;;;;;6.12;66.05;92930.28;2061652;69;20596;-83
2023/12/29 09:06:52;;;;;;;32.72;14.00;;;;;;;6.29;65.66;92933.06;2061853;69;20244;-82
2023/12/29 09:09:18;;;;;;;26.85;13.00;;;;;;;6.33;65.27;92927.06;2058648;69;20692;-84
2023/12/29 09:11:46;;;;;;;28.20;12.20;;;;;;;6.38;65.72;92914.88;2061900;69;20171;-83
2023/12/29 09:14:11;;;;;;;23.65;12.77;;;;;;;5.94;65.23;92929.53;2061949;69;20148;-83
2023/12/29 09:16:40;;;;;;;28.08;15.52;;;;;;;5.78;66.27;92917.78;2061831;69;20279;-86
2023/12/29 09:19:05;;;;;;;28.35;14.45;;;;;;;6.45;65.43;92927.28;2061975;69;20141;-85
2023/12/29 09:21:31;;;;;;;27.98;14.48;;;;;;;6.25;65.63;92926.41;2058661;69;20144;-85
2023/12/29 09:23:58;;;;;;;28.90;14.48;;;;;;;6.60;65.03;92927.09;2061973;69;20153;-83
2023/12/29 09:26:26;;;;;;;25.73;15.02;;;;;;;6.84;65.31;92919.84;2055717;69;20225;-80
2023/12/29 09:28:53;;;;;;;35.70;16.88;;;;;;;7.08;64.57;92918.19;2051036;70;20154;-81
2023/12/29 09:31:18;;;;;;;36.67;18.27;;;;;;;7.17;64.83;92916.75;2054013;70;20154;-82
2023/12/29 09:33:44;;;;;;;39.30;16.67;;;;;;;7.27;63.84;92918.25;2053756;70;20236;-82
2023/12/29 09:36:11;;;;;;;26.08;12.77;;;;;;;7.13;63.84;92929.13;2054014;70;20150;-79
2023/12/29 09:38:41;;;;;;;23.20;12.20;;;;;;;6.94;62.86;92925.50;2053924;70;20518;-80
2023/12/29 09:41:13;;;;;;;38.22;10.90;;;;;;;7.09;63.10;92934.41;2053978;69;20216;-78
2023/12/29 09:43:42;;;;;;;33.83;10.00;;;;;;;7.46;62.72;92928.78;2054040;69;20138;-82
2023/12/29 09:46:11;;;;;;;25.55;10.13;;;;;;;7.69;61.72;92925.59;2054071;70;20137;-83
2023/12/29 09:48:37;;;;;;;26.67;12.27;;;;;;;7.80;62.21;92925.03;2053918;69;20138;-81
2023/12/29 09:51:05;;;;;;;24.83;11.60;;;;;;;7.89;62.42;92924.31;2053980;70;20168;-81
2023/12/29 09:53:32;;;;;;;25.15;12.55;;;;;;;7.80;62.25;92918.69;2054104;69;20140;-82
2023/12/29 09:56:00;;;;;;;33.53;15.57;;;;;;;7.42;62.69;92920.06;2053998;70;20146;-80
2023/12/29 09:58:26;;;;;;;26.45;9.65;;;;;;;7.85;62.78;92906.44;2053985;70;20146;-79
2023/12/29 10:00:52;;;;;;;22.73;9.48;;;;;;;8.15;60.64;92903.06;2053980;70;20138;-81
2023/12/29 10:03:19;;;;;;;25.08;11.80;;;;;;;8.47;61.29;92903.94;2053880;69;20234;-79
2023/12/29 10:05:51;;;;;;;23.50;10.30;;;;;;;8.49;59.33;92897.75;2054049;69;20169;-80
2023/12/29 10:08:17;;;;;;;23.40;11.23;;;;;;;8.82;59.65;92898.72;2054209;69;20146;-79
2023/12/29 10:10:43;;;;;;;26.05;8.77;;;;;;;9.07;58.83;92891.97;2054128;70;20146;-79
2023/12/29 10:13:11;;;;;;;14.27;7.88;;;;;;;9.25;58.66;92887.59;2054053;70;20138;-81
2023/12/29 10:16:09;;;;;;;18.42;10.90;;;;;;;9.45;57.65;92893.88;2053821;70;20715;-81
2023/12/29 10:19:10;;;;;;;14.27;8.27;;;;;;;9.64;57.27;92887.41;2055967;69;20141;-78
2023/12/29 10:22:03;;;;;;;18.25;7.80;;;;;;;9.89;55.11;92896.13;2058110;69;20149;-81
2023/12/29 10:24:31;;;;;;;15.82;7.88;;;;;;;10.13;54.56;92882.94;2061452;69;20252;-80
2023/12/29 10:26:57;;;;;;;17.63;10.25;;;;;;;9.87;54.11;92884.75;2061707;69;20601;-80
2023/12/29 10:29:23;;;;;;;13.68;8.02;;;;;;;10.16;54.22;92870.47;2061440;69;20204;-79
2023/12/29 10:31:49;;;;;;;13.32;7.13;;;;;;;10.65;52.48;92884.13;2061433;69;20153;-80
2023/12/29 10:34:28;;;;;;;16.85;7.82;;;;;;;11.19;52.42;92877.63;2058154;69;20149;-80
2023/12/29 10:36:55;;;;;;;15.30;8.65;;;;;;;12.32;50.63;92873.69;2058383;69;20169;-79
2023/12/29 10:39:21;;;;;;;12.15;6.75;;;;;;;12.78;48.56;92872.03;2061587;69;20161;-81
2023/12/29 10:41:48;;;;;;;8.38;5.25;;;;;;;12.40;46.55;92866.41;2061381;69;20513;-80
2023/12/29 10:44:36;;;;;;;15.32;8.70;;;;;;;12.77;47.87;92862.81;2061318;69;20244;-80
2023/12/29 10:47:24;;;;;;;16.73;9.15;;;;;;;12.58;48.87;92858.25;2061083;69;20141;-81
2023/12/29 10:49:59;;;;;;;21.17;11.50;;;;;;;12.44;48.42;92854.63;2061140;69;20169;-79
2023/12/29 10:52:24;;;;;;;23.60;10.45;;;;;;;13.16;46.91;92847.97;2061333;69;20241;-80
2023/12/29 10:55:03;;;;;;;15.15;8.82;;;;;;;13.95;45.17;92843.63;2061354;69;20170;-81
2023/12/29 10:57:29;;;;;;;14.00;6.63;;;;;;;13.91;44.20;92839.84;2061298;69;20138;-79
2023/12/29 10:59:57;;;;;;;14.18;8.52;;;;;;;11.72;47.10;92846.94;2061186;69;20140;-79
2023/12/29 11:02:26;;;;;;;14.27;8.15;;;;;;;12.78;46.86;92838.84;2061419;69;20203;-78
2023/12/29 11:04:52;;;;;;;15.80;8.80;;;;;;;13.78;45.93;92832.81;2061169;69;20145;-80
2023/12/29 11:07:38;;;;;;;17.25;9.43;;;;;;;14.47;46.48;92824.19;2061323;69;20574;-80
2023/12/29 11:10:05;;;;;;;15.15;8.85;;;;;;;14.53;45.70;92821.69;2061521;69;20192;-81
2023/12/29 11:12:33;;;;;;;14.48;7.97;;;;;;;13.69;44.82;92813.97;2061435;69;20157;-80
2023/12/29 11:15:02;;;;;;;14.05;7.47;;;;;;;13.61;44.61;92807.94;2061373;69;20149;-81
2023/12/29 11:17:30;;;;;;;14.15;7.22;;;;;;;13.40;45.36;92803.31;2061512;69;20141;-81
2023/12/29 11:19:58;;;;;;;16.00;8.05;;;;;;;13.24;45.53;92803.19;2061351;69;20203;-80
2023/12/29 11:22:27;;;;;;;10.27;7.15;;;;;;;12.53;46.24;92788.06;2058021;69;20199;-80
2023/12/29 11:24:52;;;;;;;21.52;9.52;;;;;;;11.92;47.27;92796.66;2061473;69;20137;-82
2023/12/29 11:27:19;;;;;;;44.22;18.88;;;;;;;11.93;48.76;92796.03;2061488;69;20533;-81
2023/12/29 11:29:45;;;;;;;27.48;10.35;;;;;;;12.24;49.21;92780.09;2061422;69;20165;-81
2023/12/29 11:32:32;;;;;;;35.30;15.50;;;;;;;12.30;48.90;92780.44;2058008;69;20149;-81
2023/12/29 11:35:23;;;;;;;29.00;14.23;;;;;;;12.39;48.40;92773.88;2061086;69;20633;-84